Terminal Aerodrome Forecast
Issued by NWS

Current Version | Previous Version | Graphics & Text | Print | Product List | Glossary On
Versions: 1 2 3 4 5 6 7 8 9 10 11 12 13 14 15 16 17 18 19 20 21 22
000
FTUS41 KRLX 290237 AAA
TAFCKB
TAF AMD
KCKB 290237Z 2903/2924 04003KT 5SM BR FEW035
      TEMPO 2904/2905 2SM BR FEW001
     FM290500 00000KT 1 1/2SM BR SCT001
     FM290600 00000KT 1/4SM FG VV001
     FM291300 00000KT 1 1/2SM BR SCT001
     FM291400 00000KT 4SM BR FEW001
     FM291500 00000KT 6SM BR SCT040
     FM291600 00000KT P6SM SCT040=

USA.gov is the U.S. government's official web portal to all federal, state and local government web resources and services.